Time;durP1;ratioP1;P1;durP2;ratioP2;P2;SDS_P1;SDS_P2;PMS_P1;PMS_P2;Temp;Humidity;BMP_temperature;BMP_pressure;BME280_temperature;BME280_humidity;BME280_pressure;Samples;Min_cycle;Max_cycle;Signal;HPM_P1;HPM_P2
2023/01/01 00:00:52;;;;;;;10.32;3.10;;;;;;;14.14;100.00;99949.50;6182305;28;20038;-89
2023/01/01 00:03:56;;;;;;;13.68;3.20;;;;;;;14.21;100.00;99939.28;6178436;28;20071;-89
2023/01/01 00:06:57;;;;;;;7.82;2.80;;;;;;;14.34;100.00;99944.81;6188196;28;20042;-89
2023/01/01 00:13:20;;;;;;;;;;;;;;;14.51;100.00;99952.66;6189275;28;20073;-89
2023/01/01 00:16:21;;;;;;;10.45;3.13;;;;;;;14.47;100.00;99948.75;6187629;28;19925;-89
2023/01/01 00:19:23;;;;;;;5.75;2.20;;;;;;;14.58;100.00;99956.28;6187891;28;20203;-88
2023/01/01 00:22:25;;;;;;;6.57;2.45;;;;;;;14.67;100.00;99950.09;6186902;28;20236;-88
2023/01/01 00:25:47;;;;;;;6.22;2.47;;;;;;;14.58;100.00;99951.91;6178811;28;20043;-90
2023/01/01 00:28:49;;;;;;;5.65;2.05;;;;;;;14.66;100.00;99953.69;6188671;28;20049;-89
2023/01/01 00:31:51;;;;;;;5.25;2.15;;;;;;;14.61;100.00;99950.75;6186789;28;20077;-89
2023/01/01 00:34:52;;;;;;;7.55;2.60;;;;;;;14.62;100.00;99952.38;6179426;28;20046;-89
2023/01/01 00:37:54;;;;;;;8.45;2.20;;;;;;;14.70;100.00;99959.38;6182331;28;20050;-89
2023/01/01 00:40:56;;;;;;;7.45;2.30;;;;;;;14.59;100.00;99947.50;6188835;28;20183;-89
2023/01/01 00:43:58;;;;;;;6.25;2.70;;;;;;;14.55;100.00;99956.59;6187282;28;20042;-89
2023/01/01 00:47:00;;;;;;;8.57;2.35;;;;;;;14.48;100.00;99952.97;6187513;28;20030;-89
2023/01/01 00:50:02;;;;;;;8.10;2.42;;;;;;;14.57;100.00;99939.03;6188727;28;20038;-89
2023/01/01 00:53:04;;;;;;;8.35;2.55;;;;;;;14.72;100.00;99934.81;6189251;28;20046;-89
2023/01/01 00:56:05;;;;;;;6.50;2.33;;;;;;;14.71;100.00;99945.38;6189725;28;20133;-88
2023/01/01 00:59:07;;;;;;;5.35;2.72;;;;;;;14.64;100.00;99937.41;6188658;28;20088;-89
2023/01/01 01:02:09;;;;;;;10.20;2.97;;;;;;;14.55;100.00;99941.78;6188469;28;20046;-89
2023/01/01 01:05:11;;;;;;;9.05;2.78;;;;;;;14.57;100.00;99955.47;6187849;28;20042;-89
2023/01/01 01:08:13;;;;;;;9.18;2.90;;;;;;;14.65;100.00;99952.84;6187158;28;20038;-89
2023/01/01 01:11:19;;;;;;;8.38;2.90;;;;;;;14.68;100.00;99951.72;6186939;28;20493;-89
2023/01/01 01:14:20;;;;;;;8.05;3.40;;;;;;;14.67;100.00;99970.94;6188429;28;20867;-89
2023/01/01 01:17:22;;;;;;;10.93;2.88;;;;;;;14.62;100.00;99949.78;6171716;28;20488;-89
2023/01/01 01:20:24;;;;;;;5.45;3.17;;;;;;;14.64;100.00;99947.84;6184079;28;20104;-89
2023/01/01 01:23:26;;;;;;;7.50;3.40;;;;;;;14.76;100.00;99954.34;6168045;28;20148;-89
2023/01/01 01:26:31;;;;;;;10.05;3.15;;;;;;;14.83;100.00;99970.13;6184506;28;20061;-89
2023/01/01 01:29:33;;;;;;;5.22;2.80;;;;;;;14.65;100.00;99962.47;6182544;28;20036;-89
2023/01/01 01:32:34;;;;;;;5.57;2.55;;;;;;;14.43;100.00;99995.13;6187446;28;20271;-89
2023/01/01 01:35:36;;;;;;;8.98;3.53;;;;;;;14.32;100.00;99977.22;6179603;28;20158;-89
2023/01/01 01:38:38;;;;;;;8.00;2.85;;;;;;;14.38;100.00;99986.97;6178688;28;20038;-89
2023/01/01 01:41:40;;;;;;;8.93;3.30;;;;;;;14.39;100.00;99993.81;6182471;28;20046;-89
2023/01/01 01:44:53;;;;;;;7.65;3.15;;;;;;;14.21;100.00;99988.75;6175522;28;20039;-89
2023/01/01 01:47:59;;;;;;;9.30;3.17;;;;;;;14.28;100.00;99978.50;6178204;28;20051;-89
2023/01/01 01:51:00;;;;;;;9.85;3.42;;;;;;;14.12;100.00;99974.88;6179535;28;20090;-89
2023/01/01 01:54:08;;;;;;;7.60;3.40;;;;;;;14.17;100.00;99990.81;6185790;28;20039;-89
2023/01/01 01:57:12;;;;;;;9.00;3.60;;;;;;;14.12;100.00;99976.66;6183832;28;20030;-89
2023/01/01 02:00:14;;;;;;;9.05;3.45;;;;;;;14.21;100.00;99970.50;6171103;28;20509;-89
2023/01/01 02:03:25;;;;;;;12.30;3.65;;;;;;;14.06;100.00;99965.09;6188455;28;20057;-89
2023/01/01 02:06:30;;;;;;;7.53;3.50;;;;;;;14.05;100.00;99971.25;6154367;28;20152;-89
2023/01/01 02:09:32;;;;;;;11.65;3.45;;;;;;;13.88;100.00;99974.78;6186268;28;20841;-89
2023/01/01 02:12:33;;;;;;;6.70;3.38;;;;;;;13.84;100.00;99978.66;6188441;28;20073;-89
2023/01/01 02:15:57;;;;;;;11.52;3.22;;;;;;;14.08;100.00;99977.94;6172888;28;20038;-89
2023/01/01 02:19:14;;;;;;;8.50;3.03;;;;;;;14.19;100.00;99982.88;6165311;28;20050;-89
2023/01/01 02:22:28;;;;;;;13.93;5.38;;;;;;;14.15;100.00;99997.97;6189722;28;20058;-89
2023/01/01 02:25:44;;;;;;;9.13;4.03;;;;;;;14.14;100.00;99988.53;6186383;28;20096;-89
2023/01/01 02:28:52;;;;;;;6.93;3.10;;;;;;;14.24;100.00;99983.22;6184175;28;20081;-89
2023/01/01 02:32:14;;;;;;;8.80;3.58;;;;;;;14.28;100.00;99994.91;6191512;28;20050;-89
2023/01/01 02:35:41;;;;;;;9.77;3.35;;;;;;;14.30;100.00;100008.59;6180884;28;20057;-89
2023/01/01 02:38:48;;;;;;;8.57;3.10;;;;;;;14.22;100.00;100009.38;6181483;28;20046;-89
2023/01/01 02:41:53;;;;;;;11.32;3.40;;;;;;;14.15;100.00;100012.78;6191200;28;20038;-89
2023/01/01 02:44:59;;;;;;;6.50;2.78;;;;;;;14.02;100.00;100009.81;6191747;28;20054;-89
2023/01/01 02:48:40;;;;;;;12.48;3.40;;;;;;;13.88;100.00;100022.41;6191444;28;20057;-89
2023/01/01 02:52:24;;;;;;;11.05;3.58;;;;;;;13.98;100.00;100012.69;6170496;28;20166;-89
2023/01/01 02:55:44;;;;;;;9.45;3.15;;;;;;;13.75;100.00;100002.03;6186890;28;20496;-90
2023/01/01 03:02:55;;;;;;;8.13;3.08;;;;;;;13.83;100.00;100008.25;6171444;28;20424;-89
2023/01/01 03:06:25;;;;;;;9.75;3.33;;;;;;;13.67;100.00;100015.00;6115245;29;20067;-89
2023/01/01 03:09:51;;;;;;;8.95;3.33;;;;;;;13.67;100.00;100009.78;6114525;29;20139;-89
2023/01/01 03:13:07;;;;;;;6.45;3.15;;;;;;;13.69;100.00;100013.06;6121218;29;20052;-89
2023/01/01 03:16:13;;;;;;;6.78;2.97;;;;;;;13.73;100.00;100010.94;6099317;29;20052;-89
2023/01/01 03:19:19;;;;;;;8.45;3.47;;;;;;;13.57;100.00;100004.69;6115880;29;20548;-89
2023/01/01 03:22:26;;;;;;;7.78;3.03;;;;;;;13.60;100.00;99993.16;6115102;29;20059;-89
2023/01/01 03:25:32;;;;;;;5.78;3.08;;;;;;;13.53;100.00;99995.56;6114600;29;20051;-89
2023/01/01 03:28:49;;;;;;;6.28;2.92;;;;;;;13.42;100.00;100010.63;6115715;29;20048;-89
2023/01/01 03:31:55;;;;;;;7.43;2.92;;;;;;;13.37;100.00;99998.06;6106293;29;20487;-89
2023/01/01 03:34:57;;;;;;;11.40;3.20;;;;;;;13.55;100.00;100005.81;6113598;29;20055;-89
2023/01/01 03:38:01;;;;;;;4.85;2.70;;;;;;;13.60;100.00;100007.97;6120026;29;20043;-89
2023/01/01 03:41:16;;;;;;;7.35;2.50;;;;;;;13.55;100.00;100009.22;6142796;28;20535;-89
2023/01/01 03:44:26;;;;;;;7.75;2.40;;;;;;;13.37;100.00;100008.47;6187490;28;20050;-89
2023/01/01 03:47:28;;;;;;;13.07;3.78;;;;;;;13.33;100.00;100007.13;6189259;28;20440;-89
2023/01/01 03:50:46;;;;;;;6.85;3.33;;;;;;;13.22;100.00;99999.56;6188430;28;20492;-89
2023/01/01 03:53:51;;;;;;;7.40;2.63;;;;;;;13.10;100.00;99988.59;6189574;28;20046;-89
2023/01/01 03:57:20;;;;;;;4.60;2.30;;;;;;;13.24;100.00;99995.84;6188826;28;20412;-89
2023/01/01 04:00:26;;;;;;;6.78;2.67;;;;;;;13.40;100.00;100008.16;6165677;28;20501;-89
2023/01/01 04:03:31;;;;;;;6.10;2.83;;;;;;;13.43;100.00;100020.84;6182498;28;20050;-89
2023/01/01 04:06:34;;;;;;;8.20;2.30;;;;;;;13.32;100.00;100011.53;6178366;28;20512;-89
2023/01/01 04:09:39;;;;;;;7.70;3.63;;;;;;;13.23;100.00;100020.19;6178913;28;20154;-90
2023/01/01 04:12:50;;;;;;;4.68;2.83;;;;;;;13.22;100.00;100028.16;6189577;28;20530;-89
2023/01/01 04:15:51;;;;;;;4.88;2.47;;;;;;;13.37;100.00;100021.47;6189438;28;20563;-90
2023/01/01 04:18:53;;;;;;;6.50;2.30;;;;;;;13.48;100.00;100029.00;6188810;28;20042;-90
2023/01/01 04:21:55;;;;;;;5.07;2.38;;;;;;;13.42;100.00;100040.03;6187787;28;20527;-89
2023/01/01 04:24:57;;;;;;;5.63;2.10;;;;;;;13.50;100.00;100023.66;6171756;28;20066;-90
2023/01/01 04:28:02;;;;;;;5.93;2.00;;;;;;;13.43;100.00;100039.03;6189193;28;20039;-89
2023/01/01 04:31:04;;;;;;;8.15;2.20;;;;;;;13.37;100.00;100033.66;6197644;28;20034;-89
2023/01/01 04:34:05;;;;;;;3.92;2.00;;;;;;;13.26;100.00;100042.47;6172170;28;21053;-90
2023/01/01 04:37:07;;;;;;;6.75;1.90;;;;;;;13.21;100.00;100027.31;6171713;28;20038;-89
2023/01/01 04:40:14;;;;;;;7.45;2.15;;;;;;;13.19;100.00;100046.63;6189342;28;20047;-90
2023/01/01 04:43:15;;;;;;;3.80;1.70;;;;;;;13.10;100.00;100038.75;6181884;28;20047;-89
2023/01/01 04:46:19;;;;;;;3.22;1.95;;;;;;;13.20;100.00;100043.88;6169592;28;20050;-89
2023/01/01 04:49:21;;;;;;;6.47;2.13;;;;;;;13.13;100.00;100054.06;6189275;28;20388;-90
2023/01/01 04:52:23;;;;;;;6.57;2.25;;;;;;;13.16;100.00;100055.53;6184139;28;20109;-89
2023/01/01 04:55:25;;;;;;;6.97;2.03;;;;;;;13.19;100.00;100057.84;6186078;28;20039;-89
2023/01/01 04:58:27;;;;;;;3.97;1.70;;;;;;;13.18;100.00;100071.78;6188154;28;20722;-89
2023/01/01 05:01:30;;;;;;;5.90;1.80;;;;;;;13.36;100.00;100071.81;6187888;28;20046;-89
2023/01/01 05:04:32;;;;;;;6.32;1.83;;;;;;;13.51;100.00;100080.69;6187091;28;20057;-90
2023/01/01 05:07:34;;;;;;;6.50;1.58;;;;;;;13.48;100.00;100075.81;6186920;28;20046;-89
2023/01/01 05:10:36;;;;;;;5.03;1.60;;;;;;;13.44;100.00;100073.66;6187554;28;20042;-90
2023/01/01 05:13:40;;;;;;;4.15;1.95;;;;;;;13.61;100.00;100070.19;6168820;28;20105;-90
2023/01/01 05:16:41;;;;;;;5.45;1.88;;;;;;;13.64;100.00;100085.53;6187150;28;20437;-90
2023/01/01 05:19:43;;;;;;;3.92;1.73;;;;;;;13.75;100.00;100081.84;6187388;28;20038;-90
2023/01/01 05:22:46;;;;;;;6.80;1.90;;;;;;;13.68;100.00;100068.63;6187548;28;20038;-90
2023/01/01 05:25:47;;;;;;;6.95;1.83;;;;;;;13.52;100.00;100079.75;6186863;28;20050;-89
2023/01/01 05:28:49;;;;;;;3.13;1.30;;;;;;;13.53;100.00;100060.56;6187196;28;20157;-90
2023/01/01 05:31:52;;;;;;;3.05;1.40;;;;;;;13.45;100.00;100063.13;6186339;28;20038;-90
2023/01/01 05:34:55;;;;;;;4.85;1.63;;;;;;;13.21;100.00;100063.69;6186668;28;20087;-90
2023/01/01 05:37:56;;;;;;;6.30;1.88;;;;;;;13.10;100.00;100056.94;6184813;28;20050;-90
2023/01/01 05:40:58;;;;;;;5.13;1.25;;;;;;;13.07;100.00;100074.63;6186685;28;20076;-90
2023/01/01 05:44:00;;;;;;;2.53;1.35;;;;;;;13.14;100.00;100086.88;6186693;28;20380;-90
2023/01/01 05:47:02;;;;;;;2.97;1.30;;;;;;;13.34;100.00;100107.53;6190265;28;20038;-90
2023/01/01 05:50:05;;;;;;;2.90;1.58;;;;;;;13.41;100.00;100113.78;6188537;28;20046;-90
2023/01/01 05:53:06;;;;;;;5.78;1.20;;;;;;;13.33;100.00;100117.13;6189637;28;20042;-90
2023/01/01 05:56:08;;;;;;;6.25;1.27;;;;;;;13.31;100.00;100107.84;6174461;28;20480;-90
2023/01/01 05:59:10;;;;;;;4.25;1.38;;;;;;;13.28;100.00;100110.75;6173245;28;20038;-90
2023/01/01 06:02:11;;;;;;;3.10;1.52;;;;;;;13.27;100.00;100120.31;6190652;28;20038;-90
2023/01/01 06:05:13;;;;;;;2.90;1.30;;;;;;;13.34;100.00;100128.31;6191349;28;20050;-90
2023/01/01 06:08:15;;;;;;;2.05;1.10;;;;;;;13.45;100.00;100143.72;6192627;28;20047;-90
2023/01/01 06:11:17;;;;;;;5.95;1.67;;;;;;;13.53;100.00;100148.16;6191203;28;20177;-91
2023/01/01 06:14:19;;;;;;;3.13;1.50;;;;;;;13.45;100.00;100132.50;6179796;28;20058;-90
2023/01/01 06:17:21;;;;;;;3.38;1.30;;;;;;;13.31;100.00;100126.84;6179067;28;20062;-90
2023/01/01 06:20:22;;;;;;;3.40;1.05;;;;;;;13.08;100.00;100139.44;6190850;28;20051;-90
2023/01/01 06:23:24;;;;;;;2.65;1.13;;;;;;;12.85;100.00;100136.44;6177996;28;20039;-89
2023/01/01 06:26:28;;;;;;;2.95;1.40;;;;;;;12.90;100.00;100136.00;6183807;28;20065;-90
2023/01/01 06:29:30;;;;;;;3.28;1.38;;;;;;;12.91;100.00;100127.22;6174504;28;20057;-89
2023/01/01 06:32:32;;;;;;;3.35;1.27;;;;;;;12.91;100.00;100137.63;6191222;28;20045;-90
2023/01/01 06:35:34;;;;;;;4.32;1.40;;;;;;;12.83;100.00;100133.16;6181279;28;20038;-90
2023/01/01 06:38:37;;;;;;;2.13;1.20;;;;;;;12.78;100.00;100137.97;6186990;28;20054;-90
2023/01/01 06:41:39;;;;;;;3.95;1.30;;;;;;;12.79;100.00;100134.41;6190200;28;20420;-89
2023/01/01 06:44:41;;;;;;;3.67;1.20;;;;;;;12.77;100.00;100158.88;6191495;28;20057;-90
2023/01/01 06:47:42;;;;;;;4.40;1.17;;;;;;;12.89;100.00;100162.94;6166734;28;20039;-90
2023/01/01 06:50:44;;;;;;;3.38;1.30;;;;;;;12.89;100.00;100157.72;6186548;28;20053;-90
2023/01/01 06:53:47;;;;;;;6.05;1.10;;;;;;;12.67;100.00;100166.72;6191173;28;20037;-90
2023/01/01 06:56:49;;;;;;;2.90;1.00;;;;;;;12.70;100.00;100163.84;6190019;28;20042;-90
2023/01/01 06:59:50;;;;;;;2.95;1.15;;;;;;;12.59;100.00;100172.63;6189377;28;20081;-90
2023/01/01 07:02:52;;;;;;;2.35;1.10;;;;;;;12.56;100.00;100174.72;6189291;28;20069;-90
2023/01/01 07:05:54;;;;;;;3.60;0.95;;;;;;;12.42;100.00;100194.16;6171558;28;20042;-90
2023/01/01 07:08:56;;;;;;;2.42;1.10;;;;;;;12.47;100.00;100199.72;6190719;28;20096;-90
2023/01/01 07:11:58;;;;;;;4.38;1.10;;;;;;;12.58;100.00;100203.94;6188252;28;20046;-90
2023/01/01 07:14:59;;;;;;;3.03;1.45;;;;;;;12.54;100.00;100205.19;6187884;28;20516;-90
2023/01/01 07:18:01;;;;;;;4.75;1.58;;;;;;;12.59;100.00;100205.56;6190814;28;20050;-91
2023/01/01 07:21:04;;;;;;;4.85;1.10;;;;;;;12.53;100.00;100206.97;6190165;28;20046;-90
2023/01/01 07:24:09;;;;;;;3.28;1.20;;;;;;;12.44;100.00;100224.19;6189854;28;20042;-90
2023/01/01 07:27:11;;;;;;;5.18;1.20;;;;;;;12.35;100.00;100227.66;6178520;28;20041;-90
2023/01/01 07:30:13;;;;;;;2.65;1.10;;;;;;;12.31;100.00;100233.25;6178133;28;20034;-90
2023/01/01 07:33:22;;;;;;;2.92;1.17;;;;;;;12.35;100.00;100221.66;6180119;28;20038;-90
2023/01/01 07:36:24;;;;;;;3.35;1.10;;;;;;;12.43;100.00;100237.34;6183426;28;20050;-90
2023/01/01 07:39:26;;;;;;;3.05;1.10;;;;;;;12.55;100.00;100240.59;6183754;28;20396;-90
2023/01/01 07:42:28;;;;;;;3.90;1.33;;;;;;;12.70;100.00;100254.75;6182393;28;20116;-91
2023/01/01 07:45:32;;;;;;;2.30;0.95;;;;;;;12.77;100.00;100275.75;6192487;28;20100;-90
2023/01/01 07:48:34;;;;;;;4.53;1.13;;;;;;;12.87;100.00;100286.97;6186549;28;20042;-91
2023/01/01 07:51:40;;;;;;;9.00;1.35;;;;;;;12.99;100.00;100278.00;6187449;28;20488;-91
2023/01/01 07:54:42;;;;;;;4.70;1.88;;;;;;;12.96;100.00;100280.91;6189191;28;20058;-90
2023/01/01 07:57:45;;;;;;;4.32;1.10;;;;;;;12.92;100.00;100277.78;6185272;28;20046;-90
2023/01/01 08:00:47;;;;;;;3.42;1.40;;;;;;;13.00;100.00;100295.25;6189055;28;20116;-90
2023/01/01 08:03:50;;;;;;;2.88;1.20;;;;;;;13.09;100.00;100299.59;6189510;28;20494;-90
2023/01/01 08:06:53;;;;;;;5.05;1.50;;;;;;;13.19;100.00;100304.75;6171959;28;20039;-90
2023/01/01 08:09:55;;;;;;;3.50;1.50;;;;;;;13.36;100.00;100308.38;6188915;28;20042;-90
2023/01/01 08:13:04;;;;;;;2.75;1.33;;;;;;;13.31;100.00;100313.19;6190080;28;20049;-91
2023/01/01 08:16:06;;;;;;;3.45;1.40;;;;;;;13.31;100.00;100326.19;6188863;28;20050;-90
2023/01/01 08:19:08;;;;;;;2.95;1.10;;;;;;;13.35;100.00;100328.38;6188796;28;20034;-90
2023/01/01 08:22:10;;;;;;;2.03;1.48;;;;;;;13.34;100.00;100320.69;6170850;28;20057;-90
2023/01/01 08:25:12;;;;;;;3.78;1.30;;;;;;;13.29;100.00;100313.38;6154746;28;20047;-90
2023/01/01 08:28:14;;;;;;;4.50;1.40;;;;;;;13.21;100.00;100328.00;6170132;28;20125;-90
2023/01/01 08:31:15;;;;;;;4.28;1.33;;;;;;;13.27;100.00;100323.06;6188471;28;20108;-90
2023/01/01 08:34:17;;;;;;;2.67;1.30;;;;;;;13.33;100.00;100335.50;6188659;28;20076;-91
2023/01/01 08:37:20;;;;;;;5.45;1.50;;;;;;;13.26;100.00;100341.38;6186146;28;20141;-90
2023/01/01 08:40:22;;;;;;;2.75;1.25;;;;;;;13.26;100.00;100341.38;6188390;28;20101;-90
2023/01/01 08:43:24;;;;;;;3.78;1.23;;;;;;;13.25;100.00;100353.56;6180109;28;20046;-90
2023/01/01 08:46:26;;;;;;;2.33;1.10;;;;;;;13.18;100.00;100370.69;6187943;28;20088;-90
2023/01/01 08:49:28;;;;;;;4.25;1.65;;;;;;;13.24;100.00;100380.53;6186450;28;20089;-90
2023/01/01 08:52:30;;;;;;;3.47;1.02;;;;;;;13.18;100.00;100398.47;6169014;28;20046;-90
2023/01/01 08:55:32;;;;;;;2.53;1.08;;;;;;;13.35;100.00;100402.94;6188300;28;20034;-90
2023/01/01 08:58:40;;;;;;;4.32;1.20;;;;;;;13.41;100.00;100417.97;6186463;28;20066;-90
2023/01/01 09:01:42;;;;;;;2.53;0.90;;;;;;;13.45;100.00;100397.72;6178120;28;20046;-90
2023/01/01 09:04:44;;;;;;;3.22;0.88;;;;;;;13.49;100.00;100412.06;6184770;28;20053;-90
2023/01/01 09:07:45;;;;;;;3.28;1.13;;;;;;;13.46;100.00;100415.75;6187644;28;20049;-90
2023/01/01 09:10:48;;;;;;;2.90;0.93;;;;;;;13.44;100.00;100419.47;6170760;28;20046;-90
2023/01/01 09:13:50;;;;;;;1.88;1.10;;;;;;;13.48;100.00;100434.66;6187796;28;20042;-91
2023/01/01 09:16:52;;;;;;;2.17;0.95;;;;;;;13.40;100.00;100441.53;6184345;28;20038;-90
2023/01/01 09:19:54;;;;;;;2.63;1.00;;;;;;;13.35;100.00;100457.53;6185929;28;20046;-91
2023/01/01 09:22:56;;;;;;;2.78;1.20;;;;;;;13.34;100.00;100461.09;6158248;28;20493;-90
2023/01/01 09:26:08;;;;;;;2.77;1.50;;;;;;;13.17;100.00;100482.56;6171325;28;20058;-90
2023/01/01 09:29:10;;;;;;;3.85;1.40;;;;;;;12.84;100.00;100477.66;6170016;28;20050;-90
2023/01/01 09:32:12;;;;;;;2.67;1.48;;;;;;;12.67;100.00;100497.38;6186368;28;20158;-90
2023/01/01 09:35:14;;;;;;;3.30;1.30;;;;;;;12.49;100.00;100511.94;6187826;28;20527;-90
2023/01/01 09:38:16;;;;;;;2.67;1.10;;;;;;;12.25;100.00;100525.31;6151427;28;20046;-88
2023/01/01 09:41:31;;;;;;;3.92;1.67;;;;;;;12.11;100.00;100530.84;6166485;28;20298;-88
2023/01/01 09:44:55;;;;;;;7.90;1.58;;;;;;;11.94;100.00;100530.50;6162311;28;20050;-87
2023/01/01 09:48:08;;;;;;;5.95;1.40;;;;;;;11.91;100.00;100548.09;6174268;28;20042;-87
2023/01/01 09:51:15;;;;;;;3.65;1.25;;;;;;;11.92;100.00;100558.34;6166995;28;20538;-87
2023/01/01 09:54:28;;;;;;;9.10;1.92;;;;;;;11.96;100.00;100564.09;6172920;28;20054;-87
2023/01/01 09:57:31;;;;;;;4.45;1.60;;;;;;;11.93;100.00;100547.03;6178613;28;20709;-88
2023/01/01 10:00:34;;;;;;;2.13;1.25;;;;;;;11.89;100.00;100555.19;6180148;28;20042;-87
2023/01/01 10:03:36;;;;;;;5.68;1.45;;;;;;;11.76;100.00;100550.19;6182755;28;20046;-87
2023/01/01 10:07:08;;;;;;;3.15;1.40;;;;;;;11.50;100.00;100562.69;6183386;28;20038;-87
2023/01/01 10:10:26;;;;;;;5.88;1.70;;;;;;;11.30;100.00;100569.50;6174099;28;20051;-87
2023/01/01 10:13:40;;;;;;;3.70;1.50;;;;;;;11.23;100.00;100569.22;6180634;28;20084;-88
2023/01/01 10:16:47;;;;;;;2.72;1.23;;;;;;;11.16;100.00;100558.50;6166871;28;20045;-88
2023/01/01 10:19:52;;;;;;;2.70;1.35;;;;;;;11.19;100.00;100578.16;6178463;28;20034;-87
2023/01/01 10:23:06;;;;;;;4.00;1.45;;;;;;;11.16;100.00;100583.59;6186936;28;20124;-88
2023/01/01 10:26:14;;;;;;;3.65;1.50;;;;;;;11.10;100.00;100579.72;6176735;28;20089;-88
2023/01/01 10:29:26;;;;;;;3.10;1.50;;;;;;;11.12;100.00;100577.00;6164280;28;20043;-88
2023/01/01 10:32:35;;;;;;;4.40;1.50;;;;;;;11.18;100.00;100579.13;6143845;28;20053;-88
2023/01/01 10:35:48;;;;;;;5.15;1.52;;;;;;;11.17;100.00;100593.00;6167287;28;20045;-88
2023/01/01 10:38:50;;;;;;;3.17;1.55;;;;;;;11.25;100.00;100613.94;6157562;28;20043;-88
2023/01/01 10:41:52;;;;;;;4.03;1.60;;;;;;;11.26;100.00;100625.97;6169199;28;20146;-87
2023/01/01 10:44:56;;;;;;;4.93;1.92;;;;;;;11.19;100.00;100640.34;6165241;28;20428;-86
2023/01/01 10:48:24;;;;;;;5.82;1.85;;;;;;;11.11;100.00;100646.16;6171326;28;20441;-87
2023/01/01 10:51:26;;;;;;;3.35;1.67;;;;;;;11.04;100.00;100655.34;6153643;28;20047;-87
2023/01/01 10:54:32;;;;;;;5.32;2.00;;;;;;;11.00;100.00;100648.75;6172747;28;20038;-87
2023/01/01 10:57:39;;;;;;;2.83;1.60;;;;;;;10.95;100.00;100653.47;6172781;28;20038;-88
2023/01/01 11:00:42;;;;;;;6.38;1.98;;;;;;;10.95;100.00;100650.88;6166532;28;20065;-88
2023/01/01 11:04:18;;;;;;;4.38;1.77;;;;;;;10.95;100.00;100633.56;6171018;28;20038;-88
2023/01/01 11:07:27;;;;;;;2.22;1.52;;;;;;;11.01;100.00;100621.09;6167339;28;20046;-88
2023/01/01 11:10:30;;;;;;;4.32;1.63;;;;;;;11.10;100.00;100631.53;6170335;28;20088;-88
2023/01/01 11:13:33;;;;;;;2.08;1.00;;;;;;;11.09;100.00;100622.13;6161809;28;20070;-87
2023/01/01 11:16:38;;;;;;;4.80;1.85;;;;;;;11.06;100.00;100599.06;6173670;28;20035;-88
2023/01/01 11:19:41;;;;;;;1.92;1.00;;;;;;;11.04;100.00;100598.34;6175973;28;20117;-87
2023/01/01 11:22:51;;;;;;;2.50;1.00;;;;;;;10.98;100.00;100596.22;6169594;28;20046;-87
2023/01/01 11:26:16;;;;;;;2.22;1.10;;;;;;;10.90;100.00;100589.06;6178459;28;20043;-87
2023/01/01 11:29:28;;;;;;;2.35;1.13;;;;;;;10.92;100.00;100599.31;6079076;29;20063;-87
2023/01/01 11:32:34;;;;;;;3.38;0.88;;;;;;;10.94;100.00;100603.44;6081218;29;20052;-87
2023/01/01 11:35:52;;;;;;;2.55;1.08;;;;;;;11.04;100.00;100594.94;6090193;29;20438;-87
2023/01/01 11:39:16;;;;;;;2.47;1.00;;;;;;;11.01;100.00;100603.78;6090999;29;20133;-86
2023/01/01 11:42:26;;;;;;;6.97;1.17;;;;;;;11.04;100.00;100590.59;6077598;29;20056;-87
2023/01/01 11:45:33;;;;;;;1.42;1.02;;;;;;;11.12;100.00;100564.06;6089440;29;20056;-87
2023/01/01 11:48:40;;;;;;;;;;;;;;;11.21;100.00;100552.97;6087260;29;20134;-87
2023/01/01 11:51:42;;;;;;;2.33;1.27;;;;;;;11.25;100.00;100554.34;6086997;29;20184;-87
2023/01/01 11:54:45;;;;;;;3.63;1.00;;;;;;;11.27;100.00;100551.63;6089106;29;20036;-87
2023/01/01 11:58:08;;;;;;;6.72;1.33;;;;;;;11.28;100.00;100551.53;6071543;29;20918;-88
2023/01/01 12:01:18;;;;;;;3.50;1.05;;;;;;;11.25;100.00;100559.50;6059305;29;20048;-87
2023/01/01 12:04:42;;;;;;;3.60;1.08;;;;;;;11.15;100.00;100577.56;6087732;29;20060;-87
2023/01/01 12:07:45;;;;;;;2.90;1.20;;;;;;;11.02;100.00;100586.47;6175733;28;20312;-87
2023/01/01 12:10:55;;;;;;;3.05;1.20;;;;;;;10.99;100.00;100595.31;6185968;28;20153;-87
2023/01/01 12:14:24;;;;;;;2.58;1.20;;;;;;;10.92;100.00;100592.38;6169023;28;20154;-87
2023/01/01 12:17:35;;;;;;;2.50;1.40;;;;;;;10.88;100.00;100588.41;6153619;28;20047;-87
2023/01/01 12:20:59;;;;;;;2.97;1.38;;;;;;;10.83;100.00;100594.88;6169309;28;20603;-87
2023/01/01 12:24:03;;;;;;;2.58;1.42;;;;;;;10.89;100.00;100591.81;6162958;28;20046;-87
2023/01/01 12:27:55;;;;;;;2.08;1.30;;;;;;;10.87;100.00;100610.03;6170465;28;20405;-87
2023/01/01 12:31:35;;;;;;;3.60;1.70;;;;;;;10.87;100.00;100617.00;6076474;29;20051;-87
2023/01/01 12:35:16;;;;;;;2.50;1.30;;;;;;;10.86;100.00;100621.34;6079664;29;20478;-87
2023/01/01 12:38:33;;;;;;;3.25;1.70;;;;;;;10.83;100.00;100629.38;6013345;29;20591;-87
2023/01/01 12:41:53;;;;;;;2.78;1.73;;;;;;;10.76;100.00;100635.97;6013132;29;20050;-87
2023/01/01 12:45:30;;;;;;;4.85;1.58;;;;;;;10.74;100.00;100641.25;6013677;29;20087;-87
2023/01/01 12:48:48;;;;;;;3.58;1.65;;;;;;;10.75;100.00;100626.53;5986796;29;20703;-87
2023/01/01 12:52:18;;;;;;;2.60;1.52;;;;;;;10.82;100.00;100632.88;5983099;29;20186;-87
2023/01/01 12:55:58;;;;;;;4.55;2.00;;;;;;;10.94;100.00;100639.69;5977124;29;20063;-87
2023/01/01 12:59:03;;;;;;;2.55;1.73;;;;;;;11.08;100.00;100619.63;5980278;29;20070;-87
2023/01/01 13:02:25;;;;;;;2.85;1.80;;;;;;;11.10;100.00;100628.13;5983099;29;20425;-88
2023/01/01 13:05:38;;;;;;;4.43;2.03;;;;;;;11.24;100.00;100632.22;5979244;29;20088;-87
2023/01/01 13:08:41;;;;;;;3.17;1.80;;;;;;;11.42;100.00;100613.38;5993611;29;20049;-88
2023/01/01 13:11:48;;;;;;;5.75;2.08;;;;;;;11.41;100.00;100603.97;5992406;29;20060;-88
2023/01/01 13:14:51;;;;;;;2.47;2.00;;;;;;;11.38;100.00;100601.66;6077505;29;20087;-88
2023/01/01 13:17:54;;;;;;;5.80;2.10;;;;;;;11.43;100.00;100599.50;6077699;29;20052;-88
2023/01/01 13:21:02;;;;;;;3.70;2.15;;;;;;;11.50;100.00;100599.84;6092845;29;20673;-88
2023/01/01 13:24:18;;;;;;;3.38;1.88;;;;;;;11.58;100.00;100601.78;6099399;28;20055;-87
2023/01/01 13:27:59;;;;;;;2.85;1.85;;;;;;;11.54;100.00;100608.16;6166931;28;20034;-88
2023/01/01 13:31:01;;;;;;;5.60;1.85;;;;;;;11.49;100.00;100625.88;6169151;28;20038;-87
2023/01/01 13:34:40;;;;;;;3.92;2.00;;;;;;;11.42;100.00;100634.13;6160189;28;20193;-88
2023/01/01 13:37:43;;;;;;;5.13;1.90;;;;;;;11.36;100.00;100632.03;6164076;28;20046;-87
2023/01/01 13:40:50;;;;;;;4.90;1.90;;;;;;;11.30;100.00;100635.13;6159878;28;20050;-87
2023/01/01 13:44:04;;;;;;;3.63;1.98;;;;;;;11.19;100.00;100625.63;6132369;28;20512;-87
2023/01/01 13:47:48;;;;;;;5.78;2.20;;;;;;;11.05;100.00;100638.84;6172840;28;20121;-87
2023/01/01 13:51:08;;;;;;;3.53;1.90;;;;;;;10.90;100.00;100640.88;6169815;28;20039;-87
2023/01/01 13:54:34;;;;;;;5.63;1.95;;;;;;;10.76;100.00;100639.38;6167566;28;21576;-87
2023/01/01 13:58:13;;;;;;;4.43;2.17;;;;;;;10.72;100.00;100647.50;6171578;28;20078;-87
2023/01/01 14:01:52;;;;;;;3.08;1.83;;;;;;;10.62;100.00;100642.22;6153961;28;20074;-87
2023/01/01 14:05:26;;;;;;;3.88;1.88;;;;;;;10.65;100.00;100639.38;6174664;28;20412;-87
2023/01/01 14:08:35;;;;;;;5.13;2.03;;;;;;;10.50;100.00;100662.09;6161524;28;20043;-87
2023/01/01 14:11:37;;;;;;;4.50;2.10;;;;;;;10.43;100.00;100676.44;6191179;28;20042;-87
2023/01/01 14:14:39;;;;;;;4.72;2.05;;;;;;;10.44;100.00;100685.84;6187940;28;20038;-87
2023/01/01 14:17:42;;;;;;;6.45;2.33;;;;;;;10.51;100.00;100688.81;6190725;28;20524;-87
2023/01/01 14:20:46;;;;;;;3.67;2.17;;;;;;;10.50;100.00;100687.16;6174120;28;20051;-86
2023/01/01 14:23:51;;;;;;;6.18;3.38;;;;;;;10.44;100.00;100685.84;6190115;28;20096;-87
2023/01/01 14:26:54;;;;;;;7.40;4.13;;;;;;;10.33;100.00;100694.44;6179843;28;20050;-86
2023/01/01 14:29:56;;;;;;;9.10;3.60;;;;;;;10.25;100.00;100698.50;6180707;28;20777;-86
2023/01/01 14:33:00;;;;;;;4.13;2.67;;;;;;;10.19;100.00;100702.38;6183378;28;20050;-86